createdAt,value
2023-02-24T00:01:13.909Z,6.62
2023-02-24T00:05:15.559Z,6.90
2023-02-24T00:09:20.100Z,7.20
2023-02-24T00:13:22.260Z,7.68
2023-02-24T00:17:27.594Z,6.72
2023-02-24T00:21:29.727Z,6.87
2023-02-24T00:25:31.357Z,6.93
2023-02-24T00:29:33.703Z,8.70
2023-02-24T00:33:35.464Z,7.53
2023-02-24T00:37:37.133Z,7.65
2023-02-24T00:41:43.338Z,6.50
2023-02-24T00:45:47.058Z,6.90
2023-02-24T00:49:49.949Z,6.82
2023-02-24T00:53:57.137Z,6.07
2023-02-24T01:02:00.646Z,5.57
2023-02-24T01:06:03.269Z,5.18
2023-02-24T01:10:08.409Z,5.97
2023-02-24T01:14:13.676Z,5.93
2023-02-24T01:18:15.359Z,5.85
2023-02-24T01:22:19.513Z,5.50
2023-02-24T01:26:21.332Z,6.03
2023-02-24T01:30:23.023Z,4.12
2023-02-24T01:34:26.255Z,5.37
2023-02-24T01:38:28.082Z,4.80
2023-02-24T01:42:29.879Z,4.47
2023-02-24T01:46:36.060Z,3.95
2023-02-24T01:50:38.560Z,3.63
2023-02-24T01:54:42.958Z,3.72
2023-02-24T01:58:44.680Z,3.60
2023-02-24T02:02:52.602Z,4.12
2023-02-24T02:06:54.406Z,3.58
2023-02-24T02:11:02.730Z,4.00
2023-02-24T02:15:06.543Z,4.53
2023-02-24T02:19:30.450Z,3.72
2023-02-24T02:23:43.436Z,3.35
2023-02-24T02:28:08.521Z,3.67
2023-02-24T02:32:34.276Z,3.92
2023-02-24T02:36:54.746Z,3.15
2023-02-24T02:41:17.257Z,3.30
2023-02-24T02:45:24.538Z,3.40
2023-02-24T02:49:34.185Z,3.47
2023-02-24T02:53:49.289Z,3.72
2023-02-24T02:57:55.066Z,3.15
2023-02-24T03:02:11.485Z,3.75
2023-02-24T03:06:23.207Z,3.00
2023-02-24T03:10:29.755Z,4.12
2023-02-24T03:14:34.896Z,3.00
2023-02-24T03:18:44.561Z,2.80
2023-02-24T03:22:54.708Z,2.87
2023-02-24T03:27:12.938Z,3.53
2023-02-24T03:31:28.034Z,2.80
2023-02-24T03:35:34.241Z,2.85
2023-02-24T03:39:36.479Z,2.90
2023-02-24T03:43:46.301Z,2.47
2023-02-24T03:47:48.238Z,2.35
2023-02-24T03:52:12.529Z,2.53
2023-02-24T03:56:40.267Z,2.67
2023-02-24T04:05:21.514Z,1.92
2023-02-24T04:09:40.666Z,2.33
2023-02-24T04:13:49.765Z,2.60
2023-02-24T04:17:58.501Z,2.28
2023-02-24T04:22:01.292Z,2.30
2023-02-24T04:26:03.262Z,2.45
2023-02-24T04:30:06.902Z,3.30
2023-02-24T04:34:09.517Z,2.92
2023-02-24T04:38:11.738Z,3.12
2023-02-24T04:42:13.332Z,4.07
2023-02-24T04:46:15.322Z,3.20
2023-02-24T04:50:24.905Z,3.65
2023-02-24T04:54:27.805Z,3.47
2023-02-24T04:58:29.512Z,3.92
2023-02-24T05:02:31.738Z,3.22
2023-02-24T05:06:34.135Z,3.35
2023-02-24T05:10:41.929Z,4.05
2023-02-24T05:14:43.954Z,4.43
2023-02-24T05:18:45.705Z,4.20
2023-02-24T05:22:53.479Z,4.05
2023-02-24T05:26:59.416Z,4.40
2023-02-24T05:31:10.004Z,4.20
2023-02-24T05:35:11.809Z,4.40
2023-02-24T05:39:19.062Z,4.68
2023-02-24T05:43:20.712Z,4.37
2023-02-24T05:47:23.617Z,3.85
2023-02-24T05:51:35.766Z,3.45
2023-02-24T05:55:37.420Z,3.53
2023-02-24T05:59:40.884Z,4.60
2023-02-24T06:03:48.154Z,4.35
2023-02-24T06:07:49.818Z,4.15
2023-02-24T06:11:51.494Z,3.00
2023-02-24T06:15:57.057Z,2.87
2023-02-24T06:19:58.749Z,2.70
2023-02-24T06:24:00.709Z,3.00
2023-02-24T06:28:02.382Z,3.05
2023-02-24T06:32:08.538Z,4.12
2023-02-24T06:36:10.326Z,3.07
2023-02-24T06:40:18.387Z,2.92
2023-02-24T06:44:20.043Z,3.00
2023-02-24T06:48:22.899Z,3.55
2023-02-24T06:52:26.289Z,3.95
2023-02-24T06:56:28.369Z,2.90
2023-02-24T07:00:40.728Z,2.80
2023-02-24T07:04:45.047Z,2.70
2023-02-24T07:08:48.282Z,3.67
2023-02-24T07:12:50.962Z,3.53
2023-02-24T07:16:58.344Z,3.47
2023-02-24T07:21:05.063Z,3.83
2023-02-24T07:25:07.114Z,3.53
2023-02-24T07:29:11.276Z,3.00
2023-02-24T07:33:14.150Z,2.85
2023-02-24T07:37:16.649Z,3.00
2023-02-24T07:41:22.725Z,2.95
2023-02-24T07:45:24.794Z,2.58
2023-02-24T07:49:27.922Z,2.62
2023-02-24T07:53:29.634Z,2.75
2023-02-24T07:57:33.180Z,2.90
2023-02-24T08:01:39.805Z,3.37
2023-02-24T08:05:43.466Z,3.67
2023-02-24T08:09:45.240Z,3.37
2023-02-24T08:13:47.028Z,3.05
2023-02-24T08:17:48.675Z,3.05
2023-02-24T08:21:53.072Z,4.03
2023-02-24T08:25:54.766Z,2.90
2023-02-24T08:30:01.409Z,3.15
2023-02-24T08:34:03.463Z,3.75
2023-02-24T08:38:07.592Z,3.10
2023-02-24T08:42:14.073Z,2.90
2023-02-24T08:46:20.840Z,3.10
2023-02-24T08:50:22.531Z,2.97
2023-02-24T08:54:27.616Z,2.92
2023-02-24T08:58:29.317Z,2.90
2023-02-24T09:02:31.033Z,2.95
2023-02-24T09:06:52.545Z,3.12
2023-02-24T09:10:59.217Z,2.30
2023-02-24T09:15:07.379Z,2.10
2023-02-24T09:19:40.331Z,2.78
2023-02-24T09:23:45.938Z,2.12
2023-02-24T09:27:55.363Z,1.95
2023-02-24T09:32:07.046Z,2.05
2023-02-24T09:36:19.823Z,2.28
2023-02-24T09:40:21.524Z,1.87
2023-02-24T09:44:36.356Z,2.17
2023-02-24T09:48:56.263Z,1.77
2023-02-24T09:53:13.824Z,2.08
2023-02-24T09:57:25.256Z,2.42
2023-02-24T10:01:33.327Z,1.80
2023-02-24T10:05:49.392Z,1.75
2023-02-24T10:10:18.962Z,2.25
2023-02-24T10:14:52.919Z,1.70
2023-02-24T10:19:16.419Z,2.10
2023-02-24T10:23:38.612Z,1.73
2023-02-24T10:27:58.156Z,1.77
2023-02-24T10:32:17.478Z,2.50
2023-02-24T10:36:25.763Z,1.33
2023-02-24T10:40:44.592Z,2.08
2023-02-24T10:45:01.352Z,2.30
2023-02-24T10:49:09.351Z,2.87
2023-02-24T10:53:37.625Z,2.22
2023-02-24T10:57:58.510Z,3.37
2023-02-24T11:02:23.658Z,3.42
2023-02-24T11:06:52.579Z,2.95
2023-02-24T11:10:58.735Z,2.92
2023-02-24T11:15:35.890Z,2.70
2023-02-24T11:20:10.616Z,3.70
2023-02-24T11:24:18.816Z,2.65
2023-02-24T11:28:44.782Z,3.20
2023-02-24T11:33:24.461Z,3.12
2023-02-24T11:37:34.526Z,3.10
2023-02-24T11:41:43.768Z,3.85
2023-02-24T11:46:02.121Z,3.50
2023-02-24T11:50:39.619Z,4.95
2023-02-24T11:54:47.716Z,3.30
2023-02-24T11:58:59.850Z,3.37
2023-02-24T12:03:09.405Z,3.47
2023-02-24T12:07:39.674Z,3.95
2023-02-24T12:12:00.101Z,3.45
2023-02-24T12:16:35.394Z,3.70
2023-02-24T12:20:55.395Z,3.70
2023-02-24T12:24:57.249Z,4.20
2023-02-24T12:29:23.081Z,4.25
2023-02-24T12:33:27.887Z,4.03
2023-02-24T12:38:03.513Z,4.18
2023-02-24T12:42:48.310Z,3.50
2023-02-24T12:47:14.680Z,4.00
2023-02-24T12:51:24.018Z,4.62
2023-02-24T12:55:50.179Z,4.25
2023-02-24T12:59:54.530Z,4.53
2023-02-24T13:04:31.144Z,5.43
2023-02-24T13:08:51.587Z,5.00
2023-02-24T13:13:16.068Z,4.97
2023-02-24T13:17:22.046Z,5.28
2023-02-24T13:21:24.738Z,5.32
2023-02-24T13:25:33.450Z,4.80
2023-02-24T13:29:47.231Z,4.78
2023-02-24T13:33:48.848Z,5.03
2023-02-24T13:37:51.766Z,4.68
2023-02-24T13:42:07.102Z,5.05
2023-02-24T13:46:19.309Z,5.72
2023-02-24T13:50:25.032Z,4.78
2023-02-24T13:54:58.382Z,5.28
2023-02-24T13:59:06.132Z,5.12
2023-02-24T14:03:18.117Z,5.22
2023-02-24T14:07:25.682Z,5.25
2023-02-24T14:11:32.422Z,5.55
2023-02-24T14:15:35.255Z,4.70
2023-02-24T14:19:36.990Z,5.72
2023-02-24T14:23:38.650Z,5.50
2023-02-24T14:27:42.949Z,6.30
2023-02-24T14:31:53.538Z,5.25
2023-02-24T14:35:55.846Z,6.03
2023-02-24T14:40:00.064Z,5.55
2023-02-24T14:44:21.132Z,7.00
2023-02-24T14:48:30.796Z,6.10
2023-02-24T14:53:07.485Z,5.90
2023-02-24T14:57:15.935Z,6.15
2023-02-24T15:01:23.841Z,6.87
2023-02-24T15:05:25.603Z,6.43
2023-02-24T15:09:41.195Z,7.57
2023-02-24T15:13:50.285Z,6.85
2023-02-24T15:17:56.965Z,7.40
2023-02-24T15:21:58.683Z,6.78
2023-02-24T15:26:01.541Z,7.20
2023-02-24T15:30:24.692Z,7.70
2023-02-24T15:34:31.059Z,8.60
2023-02-24T15:38:39.696Z,8.60
2023-02-24T15:42:54.157Z,9.50
2023-02-24T15:46:58.126Z,8.88
2023-02-24T15:51:05.137Z,9.40
2023-02-24T15:55:07.215Z,9.95
2023-02-24T15:59:14.870Z,10.00
2023-02-24T16:03:16.524Z,10.82
2023-02-24T16:07:25.707Z,10.77
2023-02-24T16:11:31.530Z,12.35
2023-02-24T16:15:37.792Z,13.32
2023-02-24T16:19:39.434Z,12.73
2023-02-24T16:23:41.082Z,14.23
2023-02-24T16:27:43.145Z,13.62
2023-02-24T16:31:45.093Z,13.45
2023-02-24T16:35:46.910Z,16.02
2023-02-24T16:39:49.390Z,14.45
2023-02-24T16:43:51.493Z,15.55
2023-02-24T16:47:54.911Z,11.90
2023-02-24T16:51:56.555Z,12.43
2023-02-24T16:55:58.238Z,11.38
2023-02-24T17:00:00.359Z,12.15
2023-02-24T17:04:04.796Z,11.80
2023-02-24T17:08:06.928Z,10.63
2023-02-24T17:12:12.551Z,11.52
2023-02-24T17:16:14.324Z,9.15
2023-02-24T17:20:18.341Z,10.25
2023-02-24T17:24:20.737Z,8.50
2023-02-24T17:28:22.834Z,7.60
2023-02-24T17:32:24.690Z,7.87
2023-02-24T17:36:26.427Z,8.10
2023-02-24T17:40:28.158Z,7.12
2023-02-24T17:44:29.824Z,6.37
2023-02-24T17:48:31.596Z,5.30
2023-02-24T17:52:33.394Z,5.37
2023-02-24T17:56:35.152Z,4.45
2023-02-24T18:00:38.307Z,3.80
2023-02-24T18:04:40.437Z,4.35
2023-02-24T18:08:42.282Z,3.28
2023-02-24T18:12:43.980Z,3.03
2023-02-24T18:16:45.592Z,2.62
2023-02-24T18:20:47.481Z,2.28
2023-02-24T18:24:49.325Z,2.28
2023-02-24T18:28:54.321Z,2.67
2023-02-24T18:32:56.300Z,2.30
2023-02-24T18:36:58.333Z,2.28
2023-02-24T18:41:06.195Z,1.87
2023-02-24T18:45:08.240Z,3.30
2023-02-24T18:49:11.520Z,5.82
2023-02-24T18:53:13.181Z,5.37
2023-02-24T18:57:14.885Z,2.90
2023-02-24T19:01:25.764Z,3.47
2023-02-24T19:05:37.745Z,3.37
2023-02-24T19:09:41.758Z,4.12
2023-02-24T19:13:44.098Z,3.30
2023-02-24T19:17:46.231Z,2.47
2023-02-24T19:21:49.366Z,1.85
2023-02-24T19:25:51.466Z,2.20
2023-02-24T19:29:54.297Z,1.55
2023-02-24T19:34:01.083Z,2.30
2023-02-24T19:38:02.835Z,3.28
2023-02-24T19:42:06.704Z,1.40
2023-02-24T19:46:11.962Z,2.50
2023-02-24T19:50:14.750Z,1.62
2023-02-24T19:54:16.730Z,2.05
2023-02-24T19:58:18.350Z,1.98
2023-02-24T20:02:20.041Z,1.70
2023-02-24T20:06:26.756Z,1.73
2023-02-24T20:10:28.367Z,1.90
2023-02-24T20:14:30.026Z,1.95
2023-02-24T20:18:32.165Z,2.50
2023-02-24T20:22:33.830Z,2.30
2023-02-24T20:26:36.974Z,2.42
2023-02-24T20:30:38.655Z,2.05
2023-02-24T20:34:41.061Z,2.33
2023-02-24T20:38:43.082Z,1.77
2023-02-24T20:42:44.718Z,2.58
2023-02-24T20:46:46.380Z,1.80
2023-02-24T20:50:48.274Z,2.50
2023-02-24T20:54:50.033Z,1.87
2023-02-24T20:58:53.979Z,1.95
2023-02-24T21:02:57.749Z,1.92
2023-02-24T21:06:59.423Z,2.47
2023-02-24T21:11:01.758Z,3.72
2023-02-24T21:15:04.142Z,3.50
2023-02-24T21:19:05.757Z,3.03
2023-02-24T21:23:09.265Z,3.42
2023-02-24T21:27:10.903Z,3.33
2023-02-24T21:31:16.702Z,2.87
2023-02-24T21:35:18.453Z,2.75
2023-02-24T21:39:20.751Z,2.35
2023-02-24T21:43:22.766Z,2.45
2023-02-24T21:47:24.721Z,3.50
2023-02-24T21:51:27.655Z,2.65
2023-02-24T21:55:29.321Z,2.87
2023-02-24T21:59:30.991Z,2.95
2023-02-24T22:03:32.762Z,2.72
2023-02-24T22:07:36.837Z,3.20
2023-02-24T22:11:40.850Z,4.65
2023-02-24T22:15:42.551Z,4.93
2023-02-24T22:19:44.642Z,4.05
2023-02-24T22:23:49.427Z,4.30
2023-02-24T22:27:51.023Z,4.85
2023-02-24T22:31:53.393Z,4.82
2023-02-24T22:35:55.514Z,4.55
2023-02-24T22:39:57.144Z,5.12
2023-02-24T22:44:00.036Z,5.28
2023-02-24T22:48:01.735Z,4.85
2023-02-24T22:52:03.852Z,4.50
2023-02-24T22:56:06.679Z,5.00
2023-02-24T23:00:19.865Z,5.20
2023-02-24T23:04:21.486Z,4.45
2023-02-24T23:08:24.009Z,3.83
2023-02-24T23:12:25.698Z,2.60
2023-02-24T23:16:31.573Z,2.83
2023-02-24T23:20:33.401Z,2.15
2023-02-24T23:24:35.970Z,2.22
2023-02-24T23:28:38.136Z,4.37
2023-02-24T23:32:39.932Z,3.83
2023-02-24T23:36:44.444Z,3.12
2023-02-24T23:40:50.943Z,3.10
2023-02-24T23:44:52.870Z,3.22
2023-02-24T23:48:57.153Z,2.90
2023-02-24T23:52:59.005Z,2.70
2023-02-24T23:57:00.896Z,2.72
